createdAt,value
2019-05-30T00:00:06.698Z,99.90
2019-05-30T00:02:26.436Z,99.90
2019-05-30T00:04:58.131Z,99.90
2019-05-30T00:07:28.628Z,99.90
2019-05-30T00:09:59.010Z,99.90
2019-05-30T00:12:29.331Z,99.90
2019-05-30T00:15:00.702Z,99.90
2019-05-30T00:17:31.243Z,99.90
2019-05-30T00:20:03.151Z,99.90
2019-05-30T00:22:33.758Z,99.90
2019-05-30T00:25:04.435Z,99.90
2019-05-30T00:27:34.770Z,99.90
2019-05-30T00:30:05.422Z,99.90
2019-05-30T00:32:35.775Z,99.90
2019-05-30T00:35:06.510Z,99.90
2019-05-30T00:37:36.882Z,99.90
2019-05-30T00:40:07.402Z,99.90
2019-05-30T00:42:37.895Z,99.90
2019-05-30T00:45:20.059Z,99.90
2019-05-30T00:47:40.504Z,99.90
2019-05-30T00:50:10.942Z,99.90
2019-05-30T00:52:41.294Z,99.90
2019-05-30T00:55:11.683Z,99.90
2019-05-30T00:57:42.123Z,99.90
2019-05-30T01:00:12.479Z,99.90
2019-05-30T01:02:42.867Z,99.90
2019-05-30T01:05:13.399Z,99.90
2019-05-30T01:07:43.835Z,99.90
2019-05-30T01:10:14.310Z,99.90
2019-05-30T01:12:44.655Z,99.90
2019-05-30T01:15:15.773Z,99.90
2019-05-30T01:17:46.123Z,99.90
2019-05-30T01:20:16.507Z,99.90
2019-05-30T01:22:46.834Z,99.90
2019-05-30T01:25:17.195Z,99.90
2019-05-30T01:27:47.642Z,99.90
2019-05-30T01:30:19.086Z,99.90
2019-05-30T01:32:49.535Z,99.90
2019-05-30T01:35:19.890Z,99.90
2019-05-30T01:37:50.243Z,99.90
2019-05-30T01:40:20.787Z,99.90
2019-05-30T01:42:51.184Z,99.90
2019-05-30T01:45:21.518Z,99.90
2019-05-30T01:47:51.877Z,99.90
2019-05-30T01:50:22.446Z,99.90
2019-05-30T01:52:52.849Z,99.90
2019-05-30T01:55:23.310Z,99.90
2019-05-30T01:57:53.671Z,99.90
2019-05-30T02:00:27.491Z,99.90
2019-05-30T02:02:58.856Z,99.90
2019-05-30T02:05:29.395Z,99.90
2019-05-30T02:08:00.979Z,99.90
2019-05-30T02:10:31.499Z,99.90
2019-05-30T02:13:01.879Z,99.90
2019-05-30T02:15:32.335Z,99.90
2019-05-30T02:18:03.556Z,99.90
2019-05-30T02:20:34.130Z,99.90
2019-05-30T02:23:06.117Z,99.90
2019-05-30T02:25:36.567Z,99.90
2019-05-30T02:28:08.171Z,99.90
2019-05-30T02:30:38.561Z,99.90
2019-05-30T02:33:10.516Z,99.90
2019-05-30T02:35:41.354Z,99.90
2019-05-30T02:38:12.078Z,99.90
2019-05-30T02:40:42.642Z,99.90
2019-05-30T02:43:13.099Z,99.90
2019-05-30T02:45:43.445Z,99.90
2019-05-30T02:48:13.788Z,99.90
2019-05-30T02:50:44.231Z,99.90
2019-05-30T02:53:14.679Z,99.90
2019-05-30T02:55:45.023Z,99.90
2019-05-30T02:58:15.504Z,99.90
2019-05-30T03:00:46.025Z,99.90
2019-05-30T03:03:16.398Z,99.90
2019-05-30T03:05:46.783Z,99.90
2019-05-30T03:08:17.418Z,99.90
2019-05-30T03:10:47.799Z,99.90
2019-05-30T03:13:18.136Z,99.90
2019-05-30T03:15:48.589Z,99.90
2019-05-30T03:18:19.035Z,99.90
2019-05-30T03:20:49.433Z,99.90
2019-05-30T03:23:19.875Z,99.90
2019-05-30T03:25:50.341Z,99.90
2019-05-30T03:28:20.675Z,99.90
2019-05-30T03:30:51.048Z,99.90
2019-05-30T03:33:38.231Z,99.90
2019-05-30T03:35:53.464Z,99.90
2019-05-30T03:38:23.904Z,99.90
2019-05-30T03:40:54.240Z,99.90
2019-05-30T03:43:24.588Z,99.90
2019-05-30T03:45:55.043Z,99.90
2019-05-30T03:48:27.001Z,99.90
2019-05-30T03:50:58.916Z,99.90
2019-05-30T03:53:29.669Z,99.90
2019-05-30T03:56:06.659Z,99.90
2019-05-30T03:58:55.398Z,99.90
2019-05-30T04:01:31.408Z,99.90
2019-05-30T04:04:14.568Z,99.90
2019-05-30T04:06:49.276Z,99.90
2019-05-30T04:09:24.264Z,99.90
2019-05-30T04:12:07.777Z,99.90
2019-05-30T04:14:40.269Z,99.90
2019-05-30T04:17:13.602Z,99.90
2019-05-30T04:19:42.823Z,99.90
2019-05-30T04:22:13.524Z,99.90
2019-05-30T04:24:43.947Z,99.90
2019-05-30T04:27:15.971Z,99.90
2019-05-30T04:29:46.458Z,99.90
2019-05-30T04:32:18.911Z,99.90
2019-05-30T04:34:49.476Z,99.90
2019-05-30T04:37:19.826Z,99.90
2019-05-30T04:39:50.216Z,99.90
2019-05-30T04:42:20.928Z,99.90
2019-05-30T04:44:51.415Z,99.90
2019-05-30T04:47:21.868Z,99.90
2019-05-30T04:49:52.333Z,99.90
2019-05-30T04:52:24.742Z,99.90
2019-05-30T04:54:54.669Z,99.90
2019-05-30T04:57:26.968Z,99.90
2019-05-30T04:59:57.171Z,99.90
2019-05-30T05:02:27.552Z,99.90
2019-05-30T05:04:57.900Z,99.90
2019-05-30T05:07:28.413Z,99.90
2019-05-30T05:09:58.742Z,99.90
2019-05-30T05:12:29.221Z,99.90
2019-05-30T05:14:59.667Z,99.90
2019-05-30T05:17:30.039Z,99.90
2019-05-30T05:20:00.495Z,99.90
2019-05-30T05:22:30.847Z,99.90
2019-05-30T05:25:01.207Z,99.90
2019-05-30T05:27:31.655Z,99.90
2019-05-30T05:30:01.937Z,99.90
2019-05-30T05:32:32.279Z,99.90
2019-05-30T05:35:02.648Z,99.90
2019-05-30T05:37:32.995Z,99.90
2019-05-30T05:40:03.379Z,99.90
2019-05-30T05:42:33.828Z,99.90
2019-05-30T05:45:04.531Z,99.90
2019-05-30T05:47:34.979Z,99.90
2019-05-30T05:50:05.701Z,99.90
2019-05-30T05:52:36.027Z,99.90
2019-05-30T05:55:06.806Z,99.90
2019-05-30T05:57:37.246Z,99.90
2019-05-30T06:00:07.651Z,99.90
2019-05-30T06:02:38.004Z,99.90
2019-05-30T06:05:08.436Z,99.90
2019-05-30T06:07:38.822Z,99.90
2019-05-30T06:10:09.315Z,99.90
2019-05-30T06:12:39.795Z,99.90
2019-05-30T06:15:10.150Z,99.90
2019-05-30T06:17:40.594Z,99.90
2019-05-30T06:20:12.528Z,99.90
2019-05-30T06:22:42.995Z,99.90
2019-05-30T06:25:13.450Z,99.90
2019-05-30T06:27:44.453Z,99.90
2019-05-30T06:30:15.038Z,99.90
2019-05-30T06:32:45.399Z,99.90
2019-05-30T06:35:15.831Z,99.90
2019-05-30T06:37:46.287Z,99.90
2019-05-30T06:40:16.748Z,99.90
2019-05-30T06:42:47.088Z,99.90
2019-05-30T06:45:17.528Z,99.90
2019-05-30T06:47:47.975Z,99.90
2019-05-30T06:50:18.300Z,99.90
2019-05-30T06:52:48.757Z,99.90
2019-05-30T06:55:19.106Z,99.90
2019-05-30T06:57:49.483Z,99.90
2019-05-30T07:00:21.596Z,99.90
2019-05-30T07:02:52.262Z,99.90
2019-05-30T07:05:24.109Z,99.90
2019-05-30T07:07:54.814Z,99.90
2019-05-30T07:10:25.377Z,99.90
2019-05-30T07:12:55.842Z,99.90
2019-05-30T07:15:27.232Z,99.90
2019-05-30T07:17:57.723Z,99.90
2019-05-30T07:20:28.115Z,99.90
2019-05-30T07:22:58.576Z,99.90
2019-05-30T07:25:29.885Z,99.90
2019-05-30T07:28:00.294Z,99.90
2019-05-30T07:30:30.647Z,99.90
2019-05-30T07:33:01.396Z,99.90
2019-05-30T07:35:32.081Z,99.90
2019-05-30T07:38:02.640Z,99.90
2019-05-30T07:40:33.079Z,99.90
2019-05-30T07:43:03.463Z,99.90
2019-05-30T07:45:35.091Z,99.90
2019-05-30T07:48:05.860Z,99.90
2019-05-30T07:50:36.318Z,99.90
2019-05-30T07:53:06.779Z,99.90
2019-05-30T07:55:37.145Z,99.90
2019-05-30T07:58:07.567Z,99.90
2019-05-30T08:00:38.019Z,99.90
2019-05-30T08:03:08.470Z,99.90
2019-05-30T08:05:39.029Z,99.90
2019-05-30T08:08:09.431Z,99.90
2019-05-30T08:10:39.784Z,99.90
2019-05-30T08:13:10.676Z,99.90
2019-05-30T08:15:44.033Z,99.90
2019-05-30T08:18:13.106Z,99.90
2019-05-30T08:20:43.559Z,99.90
2019-05-30T08:23:13.947Z,99.90
2019-05-30T08:25:44.349Z,99.90
2019-05-30T08:28:14.703Z,99.90
2019-05-30T08:30:45.100Z,99.90
2019-05-30T08:33:15.531Z,99.90
2019-05-30T08:35:49.917Z,99.90
2019-05-30T08:38:17.779Z,99.90
2019-05-30T08:40:48.511Z,99.90
2019-05-30T08:43:18.884Z,99.90
2019-05-30T08:45:49.239Z,99.90
2019-05-30T08:48:19.611Z,99.90
2019-05-30T08:50:50.103Z,99.90
2019-05-30T08:53:20.624Z,99.90
2019-05-30T08:55:51.022Z,99.90
2019-05-30T08:58:21.497Z,99.90
2019-05-30T09:00:52.021Z,99.90
2019-05-30T09:03:22.503Z,99.90
2019-05-30T09:06:02.647Z,99.90
2019-05-30T09:08:24.877Z,99.90
2019-05-30T09:10:55.223Z,99.90
2019-05-30T09:13:25.616Z,99.90
2019-05-30T09:15:56.079Z,99.90
2019-05-30T09:18:26.428Z,99.90
2019-05-30T09:20:56.899Z,99.90
2019-05-30T09:23:27.275Z,99.90
2019-05-30T09:25:57.732Z,99.90
2019-05-30T09:28:28.074Z,99.90
2019-05-30T09:30:58.437Z,99.90
2019-05-30T09:33:28.841Z,99.90
2019-05-30T09:36:12.233Z,99.90
2019-05-30T09:38:31.172Z,99.90
2019-05-30T09:41:01.607Z,99.90
2019-05-30T09:43:32.071Z,97.10
2019-05-30T09:46:02.426Z,98.10
2019-05-30T09:48:32.844Z,99.50
2019-05-30T09:51:03.191Z,99.80
2019-05-30T09:53:33.850Z,96.90
2019-05-30T09:56:04.220Z,98.70
2019-05-30T09:58:34.563Z,98.40
2019-05-30T10:01:05.069Z,99.90
2019-05-30T10:03:35.505Z,99.80
2019-05-30T10:06:05.982Z,95.40
2019-05-30T10:08:36.246Z,99.80
2019-05-30T10:11:06.618Z,99.70
2019-05-30T10:13:36.899Z,99.90
2019-05-30T10:16:07.260Z,99.90
2019-05-30T10:18:37.613Z,99.90
2019-05-30T10:21:07.942Z,99.90
2019-05-30T10:23:38.219Z,99.10
2019-05-30T10:26:08.645Z,99.40
2019-05-30T10:28:39.139Z,95.30
2019-05-30T10:31:09.605Z,95.50
2019-05-30T10:33:40.015Z,96.90
2019-05-30T10:36:14.619Z,96.20
2019-05-30T10:38:42.458Z,92.50
2019-05-30T10:41:12.815Z,94.60
2019-05-30T10:43:43.163Z,91.70
2019-05-30T10:46:13.526Z,92.10
2019-05-30T10:48:47.248Z,91.90
2019-05-30T10:51:17.794Z,90.80
2019-05-30T10:53:49.061Z,88.90
2019-05-30T10:56:20.325Z,90.00
2019-05-30T10:58:50.882Z,92.90
2019-05-30T11:01:21.338Z,92.80
2019-05-30T11:03:52.641Z,90.20
2019-05-30T11:06:28.896Z,92.40
2019-05-30T11:09:00.316Z,90.40
2019-05-30T11:11:30.771Z,88.60
2019-05-30T11:14:01.167Z,87.50
2019-05-30T11:16:31.535Z,86.70
2019-05-30T11:19:07.034Z,79.50
2019-05-30T11:21:33.972Z,81.80
2019-05-30T11:24:05.128Z,79.10
2019-05-30T11:26:35.515Z,73.50
2019-05-30T11:29:06.244Z,70.70
2019-05-30T11:31:36.619Z,69.80
2019-05-30T11:34:07.071Z,71.40
2019-05-30T11:36:37.535Z,69.20
2019-05-30T11:39:08.235Z,67.30
2019-05-30T11:41:38.682Z,69.00
2019-05-30T11:44:09.139Z,66.90
2019-05-30T11:46:39.487Z,66.30
2019-05-30T11:49:09.863Z,66.50
2019-05-30T11:51:40.307Z,67.40
2019-05-30T11:54:10.646Z,66.10
2019-05-30T11:56:40.971Z,64.10
2019-05-30T11:59:11.248Z,63.00
2019-05-30T12:01:41.709Z,62.20
2019-05-30T12:04:12.062Z,65.20
2019-05-30T12:06:42.459Z,67.10
2019-05-30T12:09:14.615Z,65.30
2019-05-30T12:11:44.774Z,63.00
2019-05-30T12:14:15.134Z,62.00
2019-05-30T12:16:45.591Z,61.70
2019-05-30T12:19:16.050Z,65.10
2019-05-30T12:21:46.406Z,65.60
2019-05-30T12:24:16.864Z,63.10
2019-05-30T12:26:47.306Z,62.80
2019-05-30T12:29:17.588Z,62.20
2019-05-30T12:31:48.027Z,63.20
2019-05-30T12:34:18.382Z,62.60
2019-05-30T12:36:48.719Z,63.50
2019-05-30T12:39:19.359Z,59.60
2019-05-30T12:41:49.894Z,57.30
2019-05-30T12:44:20.262Z,59.40
2019-05-30T12:46:50.703Z,57.60
2019-05-30T12:49:21.168Z,55.30
2019-05-30T12:51:51.735Z,57.40
2019-05-30T12:54:22.178Z,58.30
2019-05-30T12:56:52.631Z,58.80
2019-05-30T12:59:22.963Z,58.00
2019-05-30T13:01:54.661Z,56.80
2019-05-30T13:04:25.152Z,57.30
2019-05-30T13:06:56.451Z,54.80
2019-05-30T13:09:27.550Z,58.20
2019-05-30T13:11:58.443Z,59.80
2019-05-30T13:14:28.907Z,60.60
2019-05-30T13:16:59.678Z,61.00
2019-05-30T13:19:30.202Z,60.00
2019-05-30T13:22:01.385Z,61.80
2019-05-30T13:24:31.866Z,63.10
2019-05-30T13:27:03.788Z,63.30
2019-05-30T13:29:34.271Z,64.70
2019-05-30T13:32:04.887Z,64.00
2019-05-30T13:34:35.259Z,63.90
2019-05-30T13:37:05.722Z,62.50
2019-05-30T13:39:37.259Z,65.10
2019-05-30T13:42:07.887Z,63.90
2019-05-30T13:44:38.322Z,64.70
2019-05-30T13:47:08.906Z,66.10
2019-05-30T13:49:39.341Z,67.00
2019-05-30T13:52:09.807Z,66.70
2019-05-30T13:54:40.159Z,64.50
2019-05-30T13:57:10.510Z,65.80
2019-05-30T13:59:40.770Z,66.10
2019-05-30T14:02:11.064Z,69.00
2019-05-30T14:04:41.539Z,68.10
2019-05-30T14:07:11.912Z,68.60
2019-05-30T14:09:42.351Z,72.00
2019-05-30T14:12:12.802Z,72.80
2019-05-30T14:14:43.091Z,74.90
2019-05-30T14:17:13.782Z,76.10
2019-05-30T14:19:44.218Z,77.60
2019-05-30T14:22:14.583Z,78.50
2019-05-30T14:24:45.089Z,80.90
2019-05-30T14:27:15.515Z,83.10
2019-05-30T14:29:45.995Z,83.70
2019-05-30T14:32:16.351Z,88.10
2019-05-30T14:34:46.742Z,90.90
2019-05-30T14:37:17.369Z,92.00
2019-05-30T14:39:47.850Z,95.40
2019-05-30T14:42:18.307Z,98.80
2019-05-30T14:44:48.754Z,99.70
2019-05-30T14:47:19.040Z,99.90
2019-05-30T14:49:49.407Z,99.90
2019-05-30T14:52:19.763Z,99.90
2019-05-30T14:54:50.167Z,99.90
2019-05-30T14:57:20.547Z,99.90
2019-05-30T14:59:50.820Z,99.90
2019-05-30T15:02:21.155Z,99.90
2019-05-30T15:04:51.510Z,99.90
2019-05-30T15:07:21.943Z,99.90
2019-05-30T15:09:52.221Z,99.90
2019-05-30T15:12:22.595Z,99.90
2019-05-30T15:14:52.944Z,99.90
2019-05-30T15:17:23.303Z,99.90
2019-05-30T15:19:53.707Z,99.90
2019-05-30T15:22:24.395Z,99.90
2019-05-30T15:24:54.762Z,99.90
2019-05-30T15:27:25.103Z,99.90
2019-05-30T15:29:55.494Z,99.90
2019-05-30T15:32:26.799Z,99.90
2019-05-30T15:34:57.325Z,99.90
2019-05-30T15:37:27.825Z,99.90
2019-05-30T15:39:58.638Z,99.90
2019-05-30T15:42:29.912Z,99.90
2019-05-30T15:45:00.435Z,99.90
2019-05-30T15:47:30.950Z,99.90
2019-05-30T15:50:01.407Z,99.90
2019-05-30T15:52:31.808Z,99.90
2019-05-30T15:55:02.146Z,99.90
2019-05-30T15:57:32.502Z,99.90
2019-05-30T16:00:02.998Z,99.90
2019-05-30T16:02:33.350Z,99.90
2019-05-30T16:05:04.210Z,99.90
2019-05-30T16:07:34.494Z,99.90
2019-05-30T16:10:05.323Z,99.90
2019-05-30T16:12:35.728Z,99.90
2019-05-30T16:15:06.428Z,99.90
2019-05-30T16:17:36.822Z,99.90
2019-05-30T16:20:07.382Z,99.90
2019-05-30T16:22:37.765Z,99.90
2019-05-30T16:25:09.102Z,99.90
2019-05-30T16:27:39.443Z,99.90
2019-05-30T16:30:10.248Z,99.90
2019-05-30T16:32:40.826Z,99.90
2019-05-30T16:35:11.312Z,99.90
2019-05-30T16:37:41.669Z,99.90
2019-05-30T16:40:12.332Z,99.90
2019-05-30T16:42:42.662Z,99.90
2019-05-30T16:45:18.407Z,99.90
2019-05-30T16:47:45.363Z,99.90
2019-05-30T16:50:16.445Z,99.90
2019-05-30T16:52:47.055Z,99.90
2019-05-30T16:55:17.440Z,99.90
2019-05-30T16:57:47.778Z,99.90
2019-05-30T17:00:19.716Z,99.90
2019-05-30T17:02:50.395Z,99.90
2019-05-30T17:05:21.073Z,99.90
2019-05-30T17:07:51.522Z,99.90
2019-05-30T17:10:30.654Z,99.90
2019-05-30T17:12:54.131Z,99.90
2019-05-30T17:15:25.964Z,99.90
2019-05-30T17:17:56.460Z,99.90
2019-05-30T17:20:26.823Z,99.90
2019-05-30T17:22:57.202Z,99.90
2019-05-30T17:25:27.477Z,99.90
2019-05-30T17:27:58.936Z,99.90
2019-05-30T17:30:29.574Z,99.90
2019-05-30T17:33:00.079Z,99.90
2019-05-30T17:35:31.553Z,99.90
2019-05-30T17:38:01.931Z,99.90
2019-05-30T17:40:44.223Z,99.90
2019-05-30T17:43:04.418Z,99.90
2019-05-30T17:45:35.157Z,99.90
2019-05-30T17:48:15.992Z,99.90
2019-05-30T17:50:37.866Z,99.90
2019-05-30T17:53:08.234Z,99.90
2019-05-30T17:55:38.675Z,99.90
2019-05-30T17:58:10.365Z,99.90
2019-05-30T18:00:40.959Z,99.90
2019-05-30T18:03:11.443Z,99.90
2019-05-30T18:05:41.846Z,99.90
2019-05-30T18:08:12.300Z,99.90
2019-05-30T18:10:53.411Z,99.90
2019-05-30T18:13:15.128Z,99.90
2019-05-30T18:15:45.590Z,99.90
2019-05-30T18:18:16.431Z,99.90
2019-05-30T18:20:48.609Z,99.90
2019-05-30T18:23:18.927Z,99.90
2019-05-30T18:25:49.335Z,99.90
2019-05-30T18:28:19.645Z,99.90
2019-05-30T18:30:50.007Z,99.90
2019-05-30T18:33:22.008Z,99.90
2019-05-30T18:35:53.463Z,99.90
2019-05-30T18:38:24.403Z,99.90
2019-05-30T18:41:10.169Z,99.90
2019-05-30T18:43:27.304Z,99.90
2019-05-30T18:45:58.131Z,99.90
2019-05-30T18:48:29.573Z,99.90
2019-05-30T18:51:01.355Z,99.90
2019-05-30T18:53:32.564Z,99.90
2019-05-30T18:56:02.912Z,99.90
2019-05-30T18:58:33.379Z,99.90
2019-05-30T19:01:03.757Z,99.90
2019-05-30T19:03:34.193Z,99.90
2019-05-30T19:06:05.154Z,99.90
2019-05-30T19:08:53.942Z,99.90
2019-05-30T19:11:29.576Z,99.90
2019-05-30T19:13:58.608Z,99.90
2019-05-30T19:16:30.712Z,99.90
2019-05-30T19:19:01.614Z,99.90
2019-05-30T19:21:32.210Z,99.90
2019-05-30T19:24:02.916Z,99.90
2019-05-30T19:26:34.594Z,99.90
2019-05-30T19:29:05.347Z,99.90
2019-05-30T19:31:36.842Z,99.90
2019-05-30T19:34:07.388Z,99.90
2019-05-30T19:36:37.735Z,99.90
2019-05-30T19:39:08.062Z,99.90
2019-05-30T19:41:52.575Z,99.90
2019-05-30T19:44:10.665Z,99.90
2019-05-30T19:46:41.651Z,99.90
2019-05-30T19:49:15.554Z,99.90
2019-05-30T19:51:47.210Z,99.90
2019-05-30T19:54:18.438Z,99.90
2019-05-30T19:56:49.594Z,99.90
2019-05-30T19:59:19.960Z,99.90
2019-05-30T20:01:50.360Z,99.90
2019-05-30T20:04:20.698Z,99.90
2019-05-30T20:06:50.996Z,99.90
2019-05-30T20:09:21.574Z,99.90
2019-05-30T20:12:02.619Z,99.90
2019-05-30T20:14:23.906Z,99.90
2019-05-30T20:16:54.202Z,99.90
2019-05-30T20:19:24.598Z,99.90
2019-05-30T20:21:55.110Z,99.90
2019-05-30T20:24:25.579Z,99.90
2019-05-30T20:26:55.858Z,99.90
2019-05-30T20:29:26.154Z,99.90
2019-05-30T20:31:56.535Z,99.90
2019-05-30T20:34:26.886Z,99.90
2019-05-30T20:36:57.353Z,99.90
2019-05-30T20:39:27.684Z,99.90
2019-05-30T20:41:58.164Z,99.90
2019-05-30T20:44:29.170Z,99.90
2019-05-30T20:47:00.760Z,99.90
2019-05-30T20:49:33.589Z,99.90
2019-05-30T20:52:05.917Z,99.90
2019-05-30T20:54:37.361Z,99.90
2019-05-30T20:57:08.832Z,99.90
2019-05-30T20:59:40.595Z,99.90
2019-05-30T21:02:11.001Z,99.90
2019-05-30T21:04:42.883Z,99.90
2019-05-30T21:07:13.619Z,99.90
2019-05-30T21:09:44.503Z,99.90
2019-05-30T21:12:16.667Z,99.90
2019-05-30T21:14:48.576Z,99.90
2019-05-30T21:17:18.923Z,99.90
2019-05-30T21:19:49.416Z,99.90
2019-05-30T21:22:19.885Z,99.90
2019-05-30T21:24:50.322Z,99.90
2019-05-30T21:27:20.613Z,99.90
2019-05-30T21:29:50.951Z,99.90
2019-05-30T21:32:21.442Z,99.90
2019-05-30T21:34:51.969Z,99.90
2019-05-30T21:37:22.443Z,99.90
2019-05-30T21:39:52.807Z,99.90
2019-05-30T21:42:23.142Z,99.90
2019-05-30T21:44:53.540Z,99.90
2019-05-30T21:47:23.903Z,99.90
2019-05-30T21:49:54.239Z,99.90
2019-05-30T21:52:24.732Z,99.90
2019-05-30T21:54:55.086Z,99.90
2019-05-30T21:57:25.535Z,99.90
2019-05-30T21:59:56.014Z,99.90
2019-05-30T22:02:26.510Z,99.90
2019-05-30T22:04:56.947Z,99.90
2019-05-30T22:07:27.301Z,99.90
2019-05-30T22:09:57.667Z,99.90
2019-05-30T22:12:28.127Z,99.90
2019-05-30T22:14:58.503Z,99.90
2019-05-30T22:17:28.842Z,99.90
2019-05-30T22:19:59.299Z,99.90
2019-05-30T22:22:29.655Z,99.90
2019-05-30T22:25:00.035Z,99.90
2019-05-30T22:27:30.410Z,99.90
2019-05-30T22:30:00.815Z,99.90
2019-05-30T22:32:31.167Z,99.90
2019-05-30T22:35:01.564Z,99.90
2019-05-30T22:37:31.915Z,99.90
2019-05-30T22:40:02.267Z,99.90
2019-05-30T22:42:32.642Z,99.90
2019-05-30T22:45:03.066Z,99.90
2019-05-30T22:47:33.344Z,99.90
2019-05-30T22:50:03.826Z,99.90
2019-05-30T22:52:34.167Z,99.90
2019-05-30T22:55:04.879Z,99.90
2019-05-30T22:57:35.216Z,99.90
2019-05-30T23:00:05.699Z,99.90
2019-05-30T23:02:36.176Z,99.90
2019-05-30T23:05:06.628Z,99.90
2019-05-30T23:07:37.063Z,99.90
2019-05-30T23:10:07.739Z,99.90
2019-05-30T23:12:38.128Z,99.90
2019-05-30T23:15:08.577Z,99.90
2019-05-30T23:17:38.912Z,99.90
2019-05-30T23:20:09.603Z,99.90
2019-05-30T23:22:39.961Z,99.90
2019-05-30T23:25:10.320Z,99.90
2019-05-30T23:27:40.658Z,99.90
2019-05-30T23:30:11.282Z,99.90
2019-05-30T23:32:41.579Z,99.90
2019-05-30T23:35:12.036Z,99.90
2019-05-30T23:37:42.407Z,99.90
2019-05-30T23:40:13.059Z,99.90
2019-05-30T23:42:43.412Z,99.90
2019-05-30T23:45:13.854Z,99.90
2019-05-30T23:47:44.331Z,99.90
2019-05-30T23:50:15.079Z,99.90
2019-05-30T23:52:45.367Z,99.90
2019-05-30T23:55:15.661Z,99.90
2019-05-30T23:57:46.117Z,99.90
